Time;durP1;ratioP1;P1;durP2;ratioP2;P2;SDS_P1;SDS_P2;PMS_P1;PMS_P2;Temp;Humidity;BMP_temperature;BMP_pressure;BME280_temperature;BME280_humidity;BME280_pressure;Samples;Min_cycle;Max_cycle;Signal;HPM_P1;HPM_P2
2023/02/05 00:01:20;;;;;;;;;;;;;;;;;;5020731;28;19928;-69
2023/02/05 00:03:46;;;;;;;;;;;;;;;;;;5037650;28;19932;-69
2023/02/05 00:06:12;;;;;;;;;;;;;;;;;;5040300;28;19975;-69
2023/02/05 00:08:38;;;;;;;;;;;;;;;;;;5038553;28;20362;-69
2023/02/05 00:11:08;;;;;;;;;;;;;;;;;;5045165;28;19956;-69
2023/02/05 00:13:34;;;;;;;;;;;;;;;;;;5041762;28;19933;-69
2023/02/05 00:16:00;;;;;;;;;;;;;;;;;;5021817;28;19967;-69
2023/02/05 00:18:26;;;;;;;;;;;;;;;;;;5044059;28;19933;-68
2023/02/05 00:20:52;;;;;;;;;;;;;;;;;;5028026;28;19932;-68
2023/02/05 00:23:17;;;;;;;;;;;;;;;;;;5045608;28;19921;-68
2023/02/05 00:25:43;;;;;;;;;;;;;;;;;;5050076;28;19987;-68
2023/02/05 00:28:09;;;;;;;;;;;;;;;;;;5038798;28;19948;-68
2023/02/05 00:30:35;;;;;;;;;;;;;;;;;;5043525;28;19924;-68
2023/02/05 00:33:01;;;;;;;;;;;;;;;;;;5042495;28;20325;-68
2023/02/05 00:35:27;;;;;;;;;;;;;;;;;;5044866;28;19920;-68
2023/02/05 00:37:55;;;;;;;;;;;;;;;;;;5044825;28;19978;-68
2023/02/05 00:40:21;;;;;;;;;;;;;;;;;;5045459;28;20347;-68
2023/02/05 00:42:46;;;;;;;;;;;;;;;;;;5022108;28;19967;-68
2023/02/05 00:45:12;;;;;;;;;;;;;;;;;;5042684;28;19932;-68
2023/02/05 00:47:38;;;;;;;;;;;;;;;;;;5045486;28;19924;-68
2023/02/05 00:50:04;;;;;;;;;;;;;;;;;;5042639;28;19932;-68
2023/02/05 00:52:30;;;;;;;;;;;;;;;;;;5044530;28;19929;-69
2023/02/05 00:54:56;;;;;;;;;;;;;;;;;;5048495;28;19924;-69
2023/02/05 00:57:23;;;;;;;;;;;;;;;;;;5046103;28;19920;-69
2023/02/05 00:59:49;;;;;;;;;;;;;;;;;;5022309;28;19956;-69
2023/02/05 01:02:15;;;;;;;;;;;;;;;;;;5027633;28;19956;-69
2023/02/05 01:04:41;;;;;;;;;;;;;;;;;;5047734;28;19927;-69
2023/02/05 01:07:07;;;;;;;;;;;;;;;;;;5055043;28;19925;-69
2023/02/05 01:09:33;;;;;;;;;;;;;;;;;;5047375;28;19924;-70
2023/02/05 01:11:58;;;;;;;;;;;;;;;;;;5028276;28;22310;-68
2023/02/05 01:14:24;;;;;;;;;;;;;;;;;;5023260;28;19929;-70
2023/02/05 01:16:50;;;;;;;;;;;;;;;;;;5046356;28;19942;-69
2023/02/05 01:19:16;;;;;;;;;;;;;;;;;;5040891;28;21496;-69
2023/02/05 01:21:42;;;;;;;;;;;;;;;;;;5043263;28;19931;-69
2023/02/05 01:24:08;;;;;;;;;;;;;;;;;;5043822;28;19936;-67
2023/02/05 01:26:34;;;;;;;;;;;;;;;;;;5045856;28;19924;-66
2023/02/05 01:29:00;;;;;;;;;;;;;;;;;;5049527;28;19928;-67
2023/02/05 01:31:28;;;;;;;;;;;;;;;;;;5043488;28;19968;-67
2023/02/05 01:33:54;;;;;;;;;;;;;;;;;;5047108;28;19935;-68
2023/02/05 01:36:20;;;;;;;;;;;;;;;;;;5050141;28;19925;-68
2023/02/05 01:38:46;;;;;;;;;;;;;;;;;;5047838;28;20326;-68
2023/02/05 01:41:12;;;;;;;;;;;;;;;;;;5044757;28;19921;-68
2023/02/05 01:43:37;;;;;;;;;;;;;;;;;;5045858;28;19924;-67
2023/02/05 01:46:03;;;;;;;;;;;;;;;;;;5053118;28;19932;-67
2023/02/05 01:48:29;;;;;;;;;;;;;;;;;;5047228;28;19929;-67
2023/02/05 01:50:55;;;;;;;;;;;;;;;;;;5046453;28;19925;-67
2023/02/05 01:53:21;;;;;;;;;;;;;;;;;;5034081;28;20456;-67
2023/02/05 01:55:47;;;;;;;;;;;;;;;;;;5042238;28;19968;-67
2023/02/05 01:58:13;;;;;;;;;;;;;;;;;;5025347;28;19933;-67
2023/02/05 02:00:39;;;;;;;;;;;;;;;;;;5024008;28;19928;-67
2023/02/05 02:03:05;;;;;;;;;;;;;;;;;;5046480;28;19956;-67
2023/02/05 02:05:31;;;;;;;;;;;;;;;;;;5037006;28;20520;-67
2023/02/05 02:07:57;;;;;;;;;;;;;;;;;;5044765;28;19921;-67
2023/02/05 02:10:22;;;;;;;;;;;;;;;;;;5046144;28;19958;-67
2023/02/05 02:12:48;;;;;;;;;;;;;;;;;;5041624;28;19928;-67
2023/02/05 02:15:14;;;;;;;;;;;;;;;;;;5045314;28;19964;-67
2023/02/05 02:17:40;;;;;;;;;;;;;;;;;;5034450;28;19943;-67
2023/02/05 02:20:06;;;;;;;;;;;;;;;;;;5027575;28;19932;-67
2023/02/05 02:22:32;;;;;;;;;;;;;;;;;;5027891;28;19955;-67
2023/02/05 02:24:58;;;;;;;;;;;;;;;;;;5023967;28;19931;-67
2023/02/05 02:27:24;;;;;;;;;;;;;;;;;;5040682;28;19921;-66
2023/02/05 02:29:50;;;;;;;;;;;;;;;;;;5044511;28;20036;-67
2023/02/05 02:32:16;;;;;;;;;;;;;;;;;;5024909;28;19975;-67
2023/02/05 02:34:42;;;;;;;;;;;;;;;;;;5042302;28;19924;-68
2023/02/05 02:37:08;;;;;;;;;;;;;;;;;;5047719;28;19921;-68
2023/02/05 02:39:33;;;;;;;;;;;;;;;;;;5045433;28;19968;-68
2023/02/05 02:41:59;;;;;;;;;;;;;;;;;;5047814;28;19925;-68
2023/02/05 02:44:25;;;;;;;;;;;;;;;;;;5051122;28;20135;-67
2023/02/05 02:46:51;;;;;;;;;;;;;;;;;;5046775;28;19925;-67
2023/02/05 02:49:17;;;;;;;;;;;;;;;;;;5044072;28;20337;-67
2023/02/05 02:51:43;;;;;;;;;;;;;;;;;;5042856;28;19947;-67
2023/02/05 02:54:09;;;;;;;;;;;;;;;;;;5046890;28;19956;-67
2023/02/05 02:56:35;;;;;;;;;;;;;;;;;;5049505;28;19933;-67
2023/02/05 02:59:01;;;;;;;;;;;;;;;;;;5033348;28;20425;-67
2023/02/05 03:01:27;;;;;;;;;;;;;;;;;;5039072;28;19924;-67
2023/02/05 03:03:53;;;;;;;;;;;;;;;;;;5054736;28;19921;-67
2023/02/05 03:06:18;;;;;;;;;;;;;;;;;;5042903;28;19925;-67
2023/02/05 03:08:44;;;;;;;;;;;;;;;;;;5023278;28;20017;-67
2023/02/05 03:11:10;;;;;;;;;;;;;;;;;;5045662;28;19925;-67
2023/02/05 03:13:36;;;;;;;;;;;;;;;;;;5048212;28;19921;-67
2023/02/05 03:16:02;;;;;;;;;;;;;;;;;;5034422;28;19944;-67
2023/02/05 03:18:28;;;;;;;;;;;;;;;;;;5043964;28;19929;-67
2023/02/05 03:20:54;;;;;;;;;;;;;;;;;;5042612;28;19925;-67
2023/02/05 03:23:20;;;;;;;;;;;;;;;;;;5041369;28;20393;-67
2023/02/05 03:25:45;;;;;;;;;;;;;;;;;;5038340;28;19927;-67
2023/02/05 03:28:11;;;;;;;;;;;;;;;;;;5018457;28;19921;-67
2023/02/05 03:30:37;;;;;;;;;;;;;;;;;;5025735;28;19928;-67
2023/02/05 03:33:03;;;;;;;;;;;;;;;;;;5039796;28;19924;-67
2023/02/05 03:35:29;;;;;;;;;;;;;;;;;;5042697;28;20480;-66
2023/02/05 03:37:55;;;;;;;;;;;;;;;;;;5045707;28;19921;-66
2023/02/05 03:40:21;;;;;;;;;;;;;;;;;;5025727;28;19931;-66
2023/02/05 03:42:47;;;;;;;;;;;;;;;;;;5023016;28;19925;-66
2023/02/05 03:45:13;;;;;;;;;;;;;;;;;;5044038;28;19928;-66
2023/02/05 03:47:38;;;;;;;;;;;;;;;;;;5051496;28;20497;-66
2023/02/05 03:50:04;;;;;;;;;;;;;;;;;;5052003;28;19931;-67
2023/02/05 03:52:31;;;;;;;;;;;;;;;;;;5042391;28;19929;-67
2023/02/05 03:54:57;;;;;;;;;;;;;;;;;;5041476;28;19936;-67
2023/02/05 03:57:23;;;;;;;;;;;;;;;;;;5043150;28;19920;-67
2023/02/05 03:59:49;;;;;;;;;;;;;;;;;;5042599;28;20576;-66
2023/02/05 04:02:14;;;;;;;;;;;;;;;;;;5042712;28;20008;-66
2023/02/05 04:04:40;;;;;;;;;;;;;;;;;;5022869;28;19951;-66
2023/02/05 04:07:06;;;;;;;;;;;;;;;;;;5043654;28;19925;-67
2023/02/05 04:09:32;;;;;;;;;;;;;;;;;;5042648;28;19966;-67
2023/02/05 04:11:58;;;;;;;;;;;;;;;;;;5041872;28;19925;-67
2023/02/05 04:14:24;;;;;;;;;;;;;;;;;;5044373;28;19924;-67
2023/02/05 04:16:50;;;;;;;;;;;;;;;;;;5044230;28;20522;-66
2023/02/05 04:19:16;;;;;;;;;;;;;;;;;;5047826;28;19933;-66
2023/02/05 04:21:41;;;;;;;;;;;;;;;;;;5042025;28;19935;-67
2023/02/05 04:24:07;;;;;;;;;;;;;;;;;;5042809;28;20402;-67
2023/02/05 04:26:33;;;;;;;;;;;;;;;;;;5037120;28;19927;-67
2023/02/05 04:28:59;;;;;;;;;;;;;;;;;;5043995;28;19966;-67
2023/02/05 04:31:25;;;;;;;;;;;;;;;;;;5023979;28;19928;-67
2023/02/05 04:33:51;;;;;;;;;;;;;;;;;;5036504;28;19956;-67
2023/02/05 04:36:17;;;;;;;;;;;;;;;;;;5042431;28;20803;-67
2023/02/05 04:38:43;;;;;;;;;;;;;;;;;;5023983;28;19929;-67
2023/02/05 04:41:08;;;;;;;;;;;;;;;;;;5030615;28;21646;-67
2023/02/05 04:43:34;;;;;;;;;;;;;;;;;;5025610;28;19960;-66
2023/02/05 04:46:00;;;;;;;;;;;;;;;;;;5048942;28;19920;-67
2023/02/05 04:48:26;;;;;;;;;;;;;;;;;;5048026;28;19924;-66
2023/02/05 04:50:52;;;;;;;;;;;;;;;;;;5053688;28;19921;-67
2023/02/05 04:53:18;;;;;;;;;;;;;;;;;;5043242;28;21229;-67
2023/02/05 04:55:44;;;;;;;;;;;;;;;;;;5047508;28;20011;-67
2023/02/05 04:58:10;;;;;;;;;;;;;;;;;;5052265;28;19999;-67
2023/02/05 05:00:36;;;;;;;;;;;;;;;;;;5046452;28;19921;-67
2023/02/05 05:03:02;;;;;;;;;;;;;;;;;;5024496;28;20429;-67
2023/02/05 05:05:27;;;;;;;;;;;;;;;;;;5046905;28;20348;-67
2023/02/05 05:07:53;;;;;;;;;;;;;;;;;;5048468;28;19956;-66
2023/02/05 05:10:19;;;;;;;;;;;;;;;;;;5053724;28;19928;-66
2023/02/05 05:12:45;;;;;;;;;;;;;;;;;;5045926;28;20398;-66
2023/02/05 05:15:11;;;;;;;;;;;;;;;;;;5030473;28;19925;-67
2023/02/05 05:17:37;;;;;;;;;;;;;;;;;;5048654;28;19928;-67
2023/02/05 05:20:03;;;;;;;;;;;;;;;;;;5048691;28;19960;-67
2023/02/05 05:22:29;;;;;;;;;;;;;;;;;;5046546;28;19924;-67
2023/02/05 05:24:55;;;;;;;;;;;;;;;;;;5048170;28;19921;-66
2023/02/05 05:27:22;;;;;;;;;;;;;;;;;;5044101;28;21772;-66
2023/02/05 05:29:48;;;;;;;;;;;;;;;;;;5030941;28;19967;-67
2023/02/05 05:32:14;;;;;;;;;;;;;;;;;;5044234;28;19921;-67
2023/02/05 05:34:39;;;;;;;;;;;;;;;;;;5048495;28;19925;-67
2023/02/05 05:37:05;;;;;;;;;;;;;;;;;;5053618;28;20363;-67
2023/02/05 05:45:01;;;;;;;;;;;;;;;;;;5045654;28;20342;-66
2023/02/05 05:47:26;;;;;;;;;;;;;;;;;;5049518;28;19921;-68
2023/02/05 05:49:52;;;;;;;;;;;;;;;;;;5041713;28;19953;-66
2023/02/05 05:52:18;;;;;;;;;;;;;;;;;;5028234;28;20483;-66
2023/02/05 05:54:45;;;;;;;;;;;;;;;;;;5046334;28;19948;-66
2023/02/05 05:57:11;;;;;;;;;;;;;;;;;;5007244;28;19936;-66
2023/02/05 05:59:37;;;;;;;;;;;;;;;;;;5041492;28;19925;-67
2023/02/05 06:02:03;;;;;;;;;;;;;;;;;;5026576;28;20007;-67
2023/02/05 06:04:29;;;;;;;;;;;;;;;;;;5057729;28;19929;-67
2023/02/05 06:06:55;;;;;;;;;;;;;;;;;;5049371;28;20370;-67
2023/02/05 06:09:21;;;;;;;;;;;;;;;;;;5048605;28;19927;-67
2023/02/05 06:11:47;;;;;;;;;;;;;;;;;;5042075;28;19928;-66
2023/02/05 06:14:12;;;;;;;;;;;;;;;;;;5029868;28;19964;-67
2023/02/05 06:16:38;;;;;;;;;;;;;;;;;;5026231;28;19929;-67
2023/02/05 06:19:04;;;;;;;;;;;;;;;;;;5078698;22;20353;-70
2023/02/05 06:21:30;;;;;;;;;;;;;;;;;;5044240;28;19924;-70
2023/02/05 06:23:56;;;;;;;;;;;;;;;;;;5016875;28;19922;-70
2023/02/05 06:26:22;;;;;;;;;;;;;;;;;;5008111;28;19928;-70
2023/02/05 06:28:48;;;;;;;;;;;;;;;;;;5016381;28;19925;-71
2023/02/05 06:31:14;;;;;;;;;;;;;;;;;;5000091;28;20389;-70
2023/02/05 06:33:40;;;;;;;;;;;;;;;;;;5022590;28;19925;-70
2023/02/05 06:36:05;;;;;;;;;;;;;;;;;;4998992;28;19925;-69
2023/02/05 06:38:31;;;;;;;;;;;;;;;;;;5041377;28;19944;-70
2023/02/05 06:40:57;;;;;;;;;;;;;;;;;;5023122;28;19925;-70
2023/02/05 06:43:23;;;;;;;;;;;;;;;;;;5031890;28;19944;-70
2023/02/05 06:45:49;;;;;;;;;;;;;;;;;;5016496;28;19963;-70
2023/02/05 06:48:15;;;;;;;;;;;;;;;;;;5033879;28;19936;-70
2023/02/05 06:50:41;;;;;;;;;;;;;;;;;;5021390;28;19940;-68
2023/02/05 06:53:07;;;;;;;;;;;;;;;;;;5045044;28;19980;-68
2023/02/05 06:55:33;;;;;;;;;;;;;;;;;;5034495;28;19924;-69
2023/02/05 06:57:58;;;;;;;;;;;;;;;;;;5027690;28;19925;-68
2023/02/05 07:00:24;;;;;;;;;;;;;;;;;;5028917;28;19964;-68
2023/02/05 07:02:51;;;;;;;;;;;;;;;;;;5007495;28;20023;-68
2023/02/05 07:05:17;;;;;;;;;;;;;;;;;;5028161;28;19924;-66
2023/02/05 07:07:43;;;;;;;;;;;;;;;;;;5021929;28;19928;-67
2023/02/05 07:10:09;;;;;;;;;;;;;;;;;;5049364;28;19964;-67
2023/02/05 07:12:35;;;;;;;;;;;;;;;;;;5041421;28;19986;-67
2023/02/05 07:15:01;;;;;;;;;;;;;;;;;;5021714;28;20027;-68
2023/02/05 07:17:27;;;;;;;;;;;;;;;;;;5020341;28;19925;-68
2023/02/05 07:19:53;;;;;;;;;;;;;;;;;;5024025;28;20317;-68
2023/02/05 07:22:19;;;;;;;;;;;;;;;;;;5024257;28;19926;-68
2023/02/05 07:24:45;;;;;;;;;;;;;;;;;;5022927;28;20012;-68
2023/02/05 07:27:11;;;;;;;;;;;;;;;;;;5021600;28;19925;-68
2023/02/05 07:29:37;;;;;;;;;;;;;;;;;;5008450;28;19983;-68
2023/02/05 07:32:02;;;;;;;;;;;;;;;;;;5003178;28;20272;-68
2023/02/05 07:34:28;;;;;;;;;;;;;;;;;;5035954;28;19956;-68
2023/02/05 07:36:54;;;;;;;;;;;;;;;;;;5024659;28;19975;-68
2023/02/05 07:39:20;;;;;;;;;;;;;;;;;;5022683;28;19933;-68
2023/02/05 07:41:46;;;;;;;;;;;;;;;;;;5026008;28;20329;-68
2023/02/05 07:44:12;;;;;;;;;;;;;;;;;;5019586;28;19921;-68
2023/02/05 07:46:38;;;;;;;;;;;;;;;;;;5022829;28;19920;-68
2023/02/05 07:49:04;;;;;;;;;;;;;;;;;;5023187;28;19978;-68
2023/02/05 07:51:30;;;;;;;;;;;;;;;;;;5023956;28;20428;-68
2023/02/05 07:53:55;;;;;;;;;;;;;;;;;;5023557;28;19921;-68
2023/02/05 07:56:22;;;;;;;;;;;;;;;;;;5025330;28;19931;-68
2023/02/05 07:58:47;;;;;;;;;;;;;;;;;;5012697;28;19960;-68
2023/02/05 08:01:13;;;;;;;;;;;;;;;;;;5014390;28;19929;-68
2023/02/05 08:03:39;;;;;;;;;;;;;;;;;;5020183;28;20363;-68
2023/02/05 08:06:05;;;;;;;;;;;;;;;;;;5015876;28;19925;-69
2023/02/05 08:08:31;;;;;;;;;;;;;;;;;;5008957;28;19980;-68
2023/02/05 08:10:57;;;;;;;;;;;;;;;;;;5028786;28;19929;-68
2023/02/05 08:13:23;;;;;;;;;;;;;;;;;;5016561;28;20446;-68
2023/02/05 08:15:49;;;;;;;;;;;;;;;;;;5028105;28;19984;-69
2023/02/05 08:18:15;;;;;;;;;;;;;;;;;;5036346;28;19929;-68
2023/02/05 08:20:40;;;;;;;;;;;;;;;;;;5042420;28;19940;-68
2023/02/05 08:23:06;;;;;;;;;;;;;;;;;;5058550;28;19925;-69
2023/02/05 08:25:32;;;;;;;;;;;;;;;;;;5042001;28;20376;-67
2023/02/05 08:27:58;;;;;;;;;;;;;;;;;;5047675;28;20328;-67
2023/02/05 08:30:24;;;;;;;;;;;;;;;;;;5045647;28;20029;-67
2023/02/05 08:32:50;;;;;;;;;;;;;;;;;;5048512;28;19921;-67
2023/02/05 08:35:16;;;;;;;;;;;;;;;;;;5054965;28;19924;-67
2023/02/05 08:37:42;;;;;;;;;;;;;;;;;;5026593;28;19978;-67
2023/02/05 08:40:08;;;;;;;;;;;;;;;;;;5046399;28;20631;-67
2023/02/05 08:42:33;;;;;;;;;;;;;;;;;;5048608;28;19932;-67
2023/02/05 08:44:59;;;;;;;;;;;;;;;;;;5031011;28;19921;-67
2023/02/05 08:47:26;;;;;;;;;;;;;;;;;;5056946;28;20461;-67
2023/02/05 08:49:52;;;;;;;;;;;;;;;;;;5050632;28;19932;-68
2023/02/05 08:52:18;;;;;;;;;;;;;;;;;;5034456;28;19955;-68
2023/02/05 08:54:44;;;;;;;;;;;;;;;;;;5054612;28;19980;-67
2023/02/05 08:57:10;;;;;;;;;;;;;;;;;;5026389;28;20422;-67
2023/02/05 08:59:36;;;;;;;;;;;;;;;;;;5045521;28;20020;-67
2023/02/05 09:02:02;;;;;;;;;;;;;;;;;;5026098;28;20024;-67
2023/02/05 09:04:28;;;;;;;;;;;;;;;;;;5023273;28;20725;-69
2023/02/05 09:06:54;;;;;;;;;;;;;;;;;;5047908;28;19931;-69
2023/02/05 09:09:20;;;;;;;;;;;;;;;;;;5029859;28;20271;-69
2023/02/05 09:11:45;;;;;;;;;;;;;;;;;;5048830;28;19935;-69
2023/02/05 09:14:11;;;;;;;;;;;;;;;;;;5013689;28;19929;-68
2023/02/05 09:16:37;;;;;;;;;;;;;;;;;;5051741;28;20011;-68
2023/02/05 09:19:03;;;;;;;;;;;;;;;;;;5048077;28;19925;-68
2023/02/05 09:21:29;;;;;;;;;;;;;;;;;;5035885;28;19940;-68
2023/02/05 09:23:56;;;;;;;;;;;;;;;;;;5053906;28;19982;-68
2023/02/05 09:26:22;;;;;;;;;;;;;;;;;;5048372;28;20402;-68
2023/02/05 09:28:48;;;;;;;;;;;;;;;;;;5033479;28;20019;-68
2023/02/05 09:31:14;;;;;;;;;;;;;;;;;;5036372;28;19928;-68
2023/02/05 09:33:39;;;;;;;;;;;;;;;;;;5053933;28;20294;-68
2023/02/05 09:36:05;;;;;;;;;;;;;;;;;;5049164;28;19921;-68
2023/02/05 09:38:31;;;;;;;;;;;;;;;;;;5034034;28;20028;-69
2023/02/05 09:40:58;;;;;;;;;;;;;;;;;;5033742;28;20333;-68
2023/02/05 09:43:24;;;;;;;;;;;;;;;;;;5034065;28;19928;-68
2023/02/05 09:45:50;;;;;;;;;;;;;;;;;;5046867;28;19921;-69
2023/02/05 09:48:16;;;;;;;;;;;;;;;;;;5021213;28;19964;-69
2023/02/05 09:50:42;;;;;;;;;;;;;;;;;;4999334;28;20369;-69
2023/02/05 09:53:08;;;;;;;;;;;;;;;;;;5021030;28;19925;-68
2023/02/05 09:55:34;;;;;;;;;;;;;;;;;;5033156;28;19921;-68
2023/02/05 09:58:00;;;;;;;;;;;;;;;;;;5020486;28;20306;-69
2023/02/05 10:00:26;;;;;;;;;;;;;;;;;;5053326;28;19929;-67
2023/02/05 10:02:52;;;;;;;;;;;;;;;;;;5048027;28;19964;-67
2023/02/05 10:05:18;;;;;;;;;;;;;;;;;;5031938;28;19925;-67
2023/02/05 10:07:44;;;;;;;;;;;;;;;;;;5015110;28;20512;-68
2023/02/05 10:10:10;;;;;;;;;;;;;;;;;;5041219;28;19925;-68
2023/02/05 10:12:36;;;;;;;;;;;;;;;;;;5030700;28;19922;-68
2023/02/05 10:15:02;;;;;;;;;;;;;;;;;;5033122;28;20301;-68
2023/02/05 10:17:28;;;;;;;;;;;;;;;;;;5015104;28;19929;-68
2023/02/05 10:19:54;;;;;;;;;;;;;;;;;;5032698;28;19925;-68
2023/02/05 10:22:20;;;;;;;;;;;;;;;;;;5013914;28;19944;-68
2023/02/05 10:24:46;;;;;;;;;;;;;;;;;;5037009;28;19928;-68
2023/02/05 10:27:11;;;;;;;;;;;;;;;;;;5027793;28;19974;-68
2023/02/05 10:29:37;;;;;;;;;;;;;;;;;;5015225;28;20298;-68
2023/02/05 10:32:03;;;;;;;;;;;;;;;;;;5033273;28;19972;-68
2023/02/05 10:34:29;;;;;;;;;;;;;;;;;;5031707;28;19925;-68
2023/02/05 10:36:55;;;;;;;;;;;;;;;;;;5033039;28;20319;-68
2023/02/05 10:39:22;;;;;;;;;;;;;;;;;;5042863;28;20310;-68
2023/02/05 10:41:47;;;;;;;;;;;;;;;;;;5033038;28;19964;-68
2023/02/05 10:44:13;;;;;;;;;;;;;;;;;;5033646;28;19960;-68
2023/02/05 10:46:39;;;;;;;;;;;;;;;;;;5032824;28;20346;-68
2023/02/05 10:49:05;;;;;;;;;;;;;;;;;;5032758;28;19940;-68
2023/02/05 10:51:31;;;;;;;;;;;;;;;;;;5010648;28;20333;-67
2023/02/05 10:54:05;;;;;;;;;;;;;;;;;;5087102;27;19923;-67
2023/02/05 10:56:31;;;;;;;;;;;;;;;;;;5089287;28;20286;-67
2023/02/05 10:58:56;;;;;;;;;;;;;;;;;;5089045;28;19930;-67
2023/02/05 11:01:22;;;;;;;;;;;;;;;;;;5074386;28;19921;-67
2023/02/05 11:03:48;;;;;;;;;;;;;;;;;;5084232;28;19928;-68
2023/02/05 11:06:14;;;;;;;;;;;;;;;;;;5067578;28;20325;-67
2023/02/05 11:08:40;;;;;;;;;;;;;;;;;;5083865;28;19928;-68
2023/02/05 11:11:06;;;;;;;;;;;;;;;;;;5068880;28;19928;-68
2023/02/05 11:13:32;;;;;;;;;;;;;;;;;;5068641;28;19925;-68
2023/02/05 11:15:58;;;;;;;;;;;;;;;;;;5078015;28;19924;-68
2023/02/05 11:18:24;;;;;;;;;;;;;;;;;;5074786;28;19932;-68
2023/02/05 11:20:50;;;;;;;;;;;;;;;;;;5068239;28;20326;-68
2023/02/05 11:23:16;;;;;;;;;;;;;;;;;;5085840;28;20044;-68
2023/02/05 11:25:41;;;;;;;;;;;;;;;;;;5088706;28;19924;-69
2023/02/05 11:28:07;;;;;;;;;;;;;;;;;;5068098;28;19924;-69
2023/02/05 11:30:34;;;;;;;;;;;;;;;;;;5067433;28;19952;-69
2023/02/05 11:33:00;;;;;;;;;;;;;;;;;;5066550;28;19924;-68
2023/02/05 11:35:26;;;;;;;;;;;;;;;;;;5068160;28;19936;-68
2023/02/05 11:37:52;;;;;;;;;;;;;;;;;;5070482;28;19921;-67
2023/02/05 11:40:17;;;;;;;;;;;;;;;;;;5088398;28;20003;-68
2023/02/05 11:42:43;;;;;;;;;;;;;;;;;;5088548;28;19928;-68
2023/02/05 11:45:09;;;;;;;;;;;;;;;;;;5087209;28;19928;-68
2023/02/05 11:47:35;;;;;;;;;;;;;;;;;;5088265;28;20441;-68
2023/02/05 11:50:01;;;;;;;;;;;;;;;;;;5072411;28;19920;-68
2023/02/05 11:52:27;;;;;;;;;;;;;;;;;;5074572;28;19928;-68
2023/02/05 11:54:53;;;;;;;;;;;;;;;;;;5079230;28;19950;-67
2023/02/05 11:57:19;;;;;;;;;;;;;;;;;;5087305;28;19924;-68
2023/02/05 11:59:47;;;;;;;;;;;;;;;;;;5107912;28;19920;-68
2023/02/05 12:02:13;;;;;;;;;;;;;;;;;;5097572;28;20362;-68
2023/02/05 12:04:39;;;;;;;;;;;;;;;;;;5060736;28;19943;-68
2023/02/05 12:07:05;;;;;;;;;;;;;;;;;;5082906;28;19924;-68
2023/02/05 12:09:31;;;;;;;;;;;;;;;;;;5064831;28;19924;-68
2023/02/05 12:11:59;;;;;;;;;;;;;;;;;;5074524;28;20401;-68
2023/02/05 12:14:25;;;;;;;;;;;;;;;;;;5084505;28;19920;-68
2023/02/05 12:16:51;;;;;;;;;;;;;;;;;;5094674;28;20370;-68
2023/02/05 12:19:18;;;;;;;;;;;;;;;;;;5094332;28;20379;-68
2023/02/05 12:21:44;;;;;;;;;;;;;;;;;;5094358;28;19966;-68
2023/02/05 12:24:10;;;;;;;;;;;;;;;;;;5073614;28;19969;-68
2023/02/05 12:26:36;;;;;;;;;;;;;;;;;;5076577;28;20391;-68
2023/02/05 12:29:02;;;;;;;;;;;;;;;;;;5072015;28;20425;-68
2023/02/05 12:31:27;;;;;;;;;;;;;;;;;;5062517;28;19928;-68
2023/02/05 12:33:53;;;;;;;;;;;;;;;;;;5055596;28;19955;-68
2023/02/05 12:36:19;;;;;;;;;;;;;;;;;;5083939;28;20277;-68
2023/02/05 12:38:45;;;;;;;;;;;;;;;;;;5067069;28;19928;-69
2023/02/05 12:41:11;;;;;;;;;;;;;;;;;;5074648;28;20304;-68
2023/02/05 12:43:37;;;;;;;;;;;;;;;;;;5071543;28;19931;-68
2023/02/05 12:46:03;;;;;;;;;;;;;;;;;;5093847;28;20304;-68
2023/02/05 12:48:29;;;;;;;;;;;;;;;;;;5091103;28;19927;-68
2023/02/05 12:50:55;;;;;;;;;;;;;;;;;;5069558;28;19924;-68
2023/02/05 12:53:21;;;;;;;;;;;;;;;;;;5075216;28;20012;-69
2023/02/05 12:55:47;;;;;;;;;;;;;;;;;;5075400;28;19920;-68
2023/02/05 12:58:13;;;;;;;;;;;;;;;;;;5075537;28;19920;-69
2023/02/05 13:00:39;;;;;;;;;;;;;;;;;;5083698;28;20415;-68
2023/02/05 13:03:05;;;;;;;;;;;;;;;;;;5073154;28;19967;-68
2023/02/05 13:05:31;;;;;;;;;;;;;;;;;;5055224;28;20390;-69
2023/02/05 13:07:57;;;;;;;;;;;;;;;;;;5075187;28;20459;-68
2023/02/05 13:10:23;;;;;;;;;;;;;;;;;;5093032;28;19979;-68
2023/02/05 13:12:48;;;;;;;;;;;;;;;;;;5075187;28;19924;-68
2023/02/05 13:15:14;;;;;;;;;;;;;;;;;;5090023;28;19954;-68
2023/02/05 13:17:40;;;;;;;;;;;;;;;;;;5091526;28;19920;-68
2023/02/05 13:20:06;;;;;;;;;;;;;;;;;;5088943;28;19935;-68
2023/02/05 13:30:42;;;;;;;;;;;;;;;;;;5079849;28;19999;-68
2023/02/05 13:33:08;;;;;;;;;;;;;;;;;;5071865;28;20007;-68
2023/02/05 13:35:37;;;;;;;;;;;;;;;;;;5088133;28;20014;-68
2023/02/05 13:38:03;;;;;;;;;;;;;;;;;;5092596;28;20002;-68
2023/02/05 13:40:29;;;;;;;;;;;;;;;;;;5092861;28;20045;-68
2023/02/05 13:42:55;;;;;;;;;;;;;;;;;;5092756;28;20246;-68
2023/02/05 13:45:20;;;;;;;;;;;;;;;;;;5092834;28;19927;-68
2023/02/05 13:47:46;;;;;;;;;;;;;;;;;;5074587;28;19928;-68
2023/02/05 13:50:12;;;;;;;;;;;;;;;;;;5073362;28;19962;-68
2023/02/05 13:52:38;;;;;;;;;;;;;;;;;;5069096;28;19951;-68
2023/02/05 13:55:04;;;;;;;;;;;;;;;;;;5071065;28;19926;-68
2023/02/05 13:57:30;;;;;;;;;;;;;;;;;;5091532;28;19924;-67
2023/02/05 13:59:56;;;;;;;;;;;;;;;;;;5073457;28;20293;-67
2023/02/05 14:02:22;;;;;;;;;;;;;;;;;;5071165;28;19982;-68
2023/02/05 14:04:52;;;;;;;;;;;;;;;;;;5090931;28;19920;-68
2023/02/05 14:07:19;;;;;;;;;;;;;;;;;;5071329;28;19920;-68
2023/02/05 14:09:44;;;;;;;;;;;;;;;;;;5084348;28;19957;-68
2023/02/05 14:12:10;;;;;;;;;;;;;;;;;;5073944;28;20040;-68
2023/02/05 14:14:36;;;;;;;;;;;;;;;;;;5092168;28;19986;-68
2023/02/05 14:17:02;;;;;;;;;;;;;;;;;;5092195;28;19920;-68
2023/02/05 14:19:28;;;;;;;;;;;;;;;;;;5092120;28;19993;-68
2023/02/05 14:21:54;;;;;;;;;;;;;;;;;;5072004;28;19924;-68
2023/02/05 14:24:20;;;;;;;;;;;;;;;;;;5076184;28;19921;-69
2023/02/05 14:26:47;;;;;;;;;;;;;;;;;;5091880;28;19984;-69
2023/02/05 14:29:12;;;;;;;;;;;;;;;;;;5088872;28;19946;-68
2023/02/05 14:31:38;;;;;;;;;;;;;;;;;;5074061;28;20335;-68
2023/02/05 14:34:04;;;;;;;;;;;;;;;;;;5091058;28;19924;-68
2023/02/05 14:36:31;;;;;;;;;;;;;;;;;;5091243;28;20371;-68
2023/02/05 14:38:59;;;;;;;;;;;;;;;;;;5089661;28;19924;-68
2023/02/05 14:41:26;;;;;;;;;;;;;;;;;;5089170;28;19999;-67
2023/02/05 14:43:52;;;;;;;;;;;;;;;;;;5071683;28;20039;-67
2023/02/05 14:46:18;;;;;;;;;;;;;;;;;;5090721;28;20010;-68
2023/02/05 14:48:44;;;;;;;;;;;;;;;;;;5084828;28;20485;-68
2023/02/05 14:51:09;;;;;;;;;;;;;;;;;;5071478;28;19920;-68
2023/02/05 14:53:36;;;;;;;;;;;;;;;;;;5054769;28;19938;-69
2023/02/05 14:56:02;;;;;;;;;;;;;;;;;;5061105;28;19924;-69
2023/02/05 14:58:27;;;;;;;;;;;;;;;;;;5079853;28;19924;-69
2023/02/05 15:00:53;;;;;;;;;;;;;;;;;;5090509;28;19941;-69
2023/02/05 15:03:20;;;;;;;;;;;;;;;;;;5071394;28;20313;-69
2023/02/05 15:05:47;;;;;;;;;;;;;;;;;;5070255;28;20153;-69
2023/02/05 15:08:13;;;;;;;;;;;;;;;;;;5071100;28;19931;-69
2023/02/05 15:10:39;;;;;;;;;;;;;;;;;;5074925;28;19966;-68
2023/02/05 15:13:05;;;;;;;;;;;;;;;;;;5078066;28;19928;-68
2023/02/05 15:15:31;;;;;;;;;;;;;;;;;;5069337;28;19924;-69
2023/02/05 15:17:57;;;;;;;;;;;;;;;;;;5087704;28;19920;-67
2023/02/05 15:20:23;;;;;;;;;;;;;;;;;;5073263;28;19927;-67
2023/02/05 15:22:49;;;;;;;;;;;;;;;;;;5091499;28;19948;-67
2023/02/05 15:25:15;;;;;;;;;;;;;;;;;;5053824;28;20275;-68
2023/02/05 15:27:41;;;;;;;;;;;;;;;;;;5084202;28;19927;-68
2023/02/05 15:30:07;;;;;;;;;;;;;;;;;;5086774;28;19924;-68
2023/02/05 15:32:34;;;;;;;;;;;;;;;;;;5054292;28;19925;-67
2023/02/05 15:35:00;;;;;;;;;;;;;;;;;;5075383;28;19927;-68
2023/02/05 15:37:26;;;;;;;;;;;;;;;;;;5068001;28;19924;-68
2023/02/05 15:39:52;;;;;;;;;;;;;;;;;;5078137;28;20293;-68
2023/02/05 15:42:18;;;;;;;;;;;;;;;;;;5092787;28;19920;-68
2023/02/05 15:44:44;;;;;;;;;;;;;;;;;;5071848;28;19955;-68
2023/02/05 15:47:10;;;;;;;;;;;;;;;;;;5094708;28;19942;-67
2023/02/05 15:49:36;;;;;;;;;;;;;;;;;;5089857;28;20599;-67
2023/02/05 15:52:02;;;;;;;;;;;;;;;;;;5074338;28;19924;-69
2023/02/05 15:54:28;;;;;;;;;;;;;;;;;;5057064;28;19924;-68
2023/02/05 15:56:54;;;;;;;;;;;;;;;;;;5066601;28;19920;-68
2023/02/05 15:59:20;;;;;;;;;;;;;;;;;;5083872;28;19970;-68
2023/02/05 16:01:46;;;;;;;;;;;;;;;;;;5073306;28;19920;-69
2023/02/05 16:04:12;;;;;;;;;;;;;;;;;;5060442;28;19925;-69
2023/02/05 16:06:38;;;;;;;;;;;;;;;;;;5069773;28;19924;-69
2023/02/05 16:09:04;;;;;;;;;;;;;;;;;;5075730;28;19927;-69
2023/02/05 16:11:30;;;;;;;;;;;;;;;;;;5094584;28;20356;-68
2023/02/05 16:13:56;;;;;;;;;;;;;;;;;;5089181;28;19920;-68
2023/02/05 16:16:22;;;;;;;;;;;;;;;;;;5094305;28;19928;-69
2023/02/05 16:18:48;;;;;;;;;;;;;;;;;;5076406;28;19924;-68
2023/02/05 16:21:14;;;;;;;;;;;;;;;;;;5076077;28;19920;-69
2023/02/05 16:23:40;;;;;;;;;;;;;;;;;;5084763;28;19993;-69
2023/02/05 16:26:06;;;;;;;;;;;;;;;;;;5065763;28;20367;-69
2023/02/05 16:28:32;;;;;;;;;;;;;;;;;;5080083;28;19924;-69
2023/02/05 16:30:58;;;;;;;;;;;;;;;;;;5093529;28;19920;-69
2023/02/05 16:33:23;;;;;;;;;;;;;;;;;;5057622;28;19924;-69
2023/02/05 16:35:49;;;;;;;;;;;;;;;;;;5074191;28;19931;-68
2023/02/05 16:38:15;;;;;;;;;;;;;;;;;;5055725;28;19920;-68
2023/02/05 16:40:45;;;;;;;;;;;;;;;;;;5077178;28;20285;-69
2023/02/05 16:43:10;;;;;;;;;;;;;;;;;;5075645;28;19924;-69
2023/02/05 16:45:36;;;;;;;;;;;;;;;;;;5082950;28;19930;-68
2023/02/05 16:48:02;;;;;;;;;;;;;;;;;;5093598;28;19920;-68
2023/02/05 16:50:28;;;;;;;;;;;;;;;;;;5094068;28;19931;-68